createdAt,value
2018-07-27T00:00:35.840Z,27.58
2018-07-27T00:01:35.837Z,27.48
2018-07-27T00:02:35.835Z,27.55
2018-07-27T00:03:35.831Z,27.55
2018-07-27T00:04:35.830Z,27.57
2018-07-27T00:05:35.823Z,27.53
2018-07-27T00:06:35.823Z,27.55
2018-07-27T00:07:35.817Z,27.52
2018-07-27T00:08:35.810Z,27.43
2018-07-27T00:09:35.809Z,27.48
2018-07-27T00:10:35.806Z,27.50
2018-07-27T00:11:35.801Z,27.38
2018-07-27T00:12:35.799Z,27.52
2018-07-27T00:13:35.794Z,27.45
2018-07-27T00:14:35.793Z,27.44
2018-07-27T00:15:35.786Z,27.50
2018-07-27T00:16:35.783Z,27.52
2018-07-27T00:17:35.788Z,27.41
2018-07-27T00:18:35.776Z,27.47
2018-07-27T00:19:35.776Z,27.43
2018-07-27T00:20:35.773Z,27.47
2018-07-27T00:21:35.784Z,27.45
2018-07-27T00:22:35.761Z,27.55
2018-07-27T00:23:35.757Z,27.52
2018-07-27T00:24:35.756Z,27.47
2018-07-27T00:25:35.746Z,27.45
2018-07-27T00:26:35.753Z,27.45
2018-07-27T00:27:35.742Z,27.45
2018-07-27T00:28:35.741Z,27.47
2018-07-27T00:29:35.742Z,27.47
2018-07-27T00:30:35.744Z,27.45
2018-07-27T00:31:35.726Z,27.47
2018-07-27T00:32:35.724Z,27.44
2018-07-27T00:33:35.723Z,27.37
2018-07-27T00:34:35.718Z,27.34
2018-07-27T00:35:35.734Z,27.38
2018-07-27T00:36:35.714Z,27.38
2018-07-27T00:37:35.706Z,27.43
2018-07-27T00:38:35.702Z,27.38
2018-07-27T00:39:35.698Z,27.43
2018-07-27T00:40:35.697Z,27.40
2018-07-27T00:41:35.697Z,27.38
2018-07-27T00:42:35.693Z,27.37
2018-07-27T00:43:35.684Z,27.44
2018-07-27T00:44:35.684Z,27.41
2018-07-27T00:45:35.679Z,27.34
2018-07-27T00:46:35.679Z,27.44
2018-07-27T00:47:35.669Z,27.38
2018-07-27T00:48:35.666Z,27.43
2018-07-27T00:49:35.663Z,27.40
2018-07-27T00:50:35.660Z,27.34
2018-07-27T00:51:35.654Z,27.38
2018-07-27T00:52:35.652Z,27.38
2018-07-27T00:53:35.648Z,27.40
2018-07-27T00:54:35.650Z,27.35
2018-07-27T00:55:35.649Z,27.34
2018-07-27T00:56:35.640Z,27.28
2018-07-27T00:57:35.639Z,27.28
2018-07-27T00:58:35.629Z,27.33
2018-07-27T00:59:35.630Z,27.34
2018-07-27T01:00:35.624Z,27.30
2018-07-27T01:01:35.612Z,27.38
2018-07-27T01:02:35.657Z,27.30
2018-07-27T01:03:35.611Z,27.34
2018-07-27T01:04:35.608Z,27.34
2018-07-27T01:05:35.608Z,27.37
2018-07-27T01:06:35.603Z,27.38
2018-07-27T01:07:35.612Z,27.35
2018-07-27T01:08:35.593Z,27.38
2018-07-27T01:09:35.608Z,27.38
2018-07-27T01:10:35.587Z,27.26
2018-07-27T01:11:35.583Z,27.20
2018-07-27T01:12:35.581Z,27.30
2018-07-27T01:13:35.576Z,27.23
2018-07-27T01:14:35.573Z,27.29
2018-07-27T01:15:35.568Z,27.34
2018-07-27T01:16:35.564Z,27.29
2018-07-27T01:17:35.560Z,27.28
2018-07-27T01:18:35.558Z,27.26
2018-07-27T01:19:35.556Z,27.20
2018-07-27T01:20:35.554Z,27.25
2018-07-27T01:21:35.547Z,27.16
2018-07-27T01:22:35.547Z,27.22
2018-07-27T01:23:35.542Z,27.25
2018-07-27T01:24:35.537Z,27.22
2018-07-27T01:25:35.531Z,27.23
2018-07-27T01:26:35.530Z,27.23
2018-07-27T01:27:35.524Z,27.22
2018-07-27T01:28:35.519Z,27.26
2018-07-27T01:29:35.513Z,27.20
2018-07-27T01:30:35.511Z,27.25
2018-07-27T01:31:35.508Z,27.20
2018-07-27T01:32:35.505Z,27.25
2018-07-27T01:33:35.504Z,27.13
2018-07-27T01:34:35.501Z,27.22
2018-07-27T01:35:35.495Z,27.25
2018-07-27T01:36:35.491Z,27.19
2018-07-27T01:37:35.488Z,27.23
2018-07-27T01:38:35.486Z,27.25
2018-07-27T01:39:35.479Z,27.19
2018-07-27T01:40:35.476Z,27.23
2018-07-27T01:41:35.471Z,27.25
2018-07-27T01:42:35.467Z,27.23
2018-07-27T01:43:35.465Z,27.18
2018-07-27T01:44:35.461Z,27.16
2018-07-27T01:45:35.465Z,27.16
2018-07-27T01:46:35.458Z,27.26
2018-07-27T01:47:35.448Z,27.18
2018-07-27T01:48:35.447Z,27.19
2018-07-27T01:49:35.448Z,27.26
2018-07-27T01:50:35.447Z,27.18
2018-07-27T01:51:35.435Z,27.18
2018-07-27T01:52:35.432Z,27.26
2018-07-27T01:53:35.427Z,27.18
2018-07-27T01:54:35.423Z,27.18
2018-07-27T01:55:35.419Z,27.13
2018-07-27T01:56:35.417Z,27.20
2018-07-27T01:57:35.413Z,27.11
2018-07-27T01:58:35.413Z,27.16
2018-07-27T01:59:35.410Z,27.15
2018-07-27T02:00:35.403Z,27.20
2018-07-27T02:01:35.398Z,27.13
2018-07-27T02:02:35.398Z,27.20
2018-07-27T02:03:35.394Z,27.07
2018-07-27T02:04:35.433Z,27.10
2018-07-27T02:05:35.386Z,27.13
2018-07-27T02:06:35.380Z,27.15
2018-07-27T02:07:35.376Z,27.18
2018-07-27T02:08:35.374Z,27.11
2018-07-27T02:09:35.370Z,27.11
2018-07-27T02:10:35.367Z,27.10
2018-07-27T02:11:35.363Z,27.08
2018-07-27T02:12:35.361Z,27.11
2018-07-27T02:13:35.353Z,27.07
2018-07-27T02:14:35.350Z,27.07
2018-07-27T02:15:35.347Z,27.05
2018-07-27T02:16:35.344Z,26.98
2018-07-27T02:17:35.340Z,27.07
2018-07-27T02:18:35.339Z,27.04
2018-07-27T02:19:35.331Z,27.00
2018-07-27T02:20:35.333Z,27.04
2018-07-27T02:21:35.326Z,27.03
2018-07-27T02:22:35.325Z,27.01
2018-07-27T02:23:35.329Z,27.04
2018-07-27T02:24:35.311Z,27.07
2018-07-27T02:25:35.314Z,27.05
2018-07-27T02:26:35.312Z,27.01
2018-07-27T02:27:35.306Z,26.98
2018-07-27T02:28:35.303Z,27.01
2018-07-27T02:29:35.292Z,26.93
2018-07-27T02:30:35.297Z,27.01
2018-07-27T02:31:35.288Z,27.00
2018-07-27T02:32:35.292Z,26.96
2018-07-27T02:33:35.288Z,27.03
2018-07-27T02:34:35.275Z,26.97
2018-07-27T02:35:35.275Z,27.03
2018-07-27T02:36:35.269Z,27.07
2018-07-27T02:37:35.273Z,27.00
2018-07-27T02:38:35.260Z,26.98
2018-07-27T02:39:35.257Z,26.98
2018-07-27T02:40:35.263Z,26.97
2018-07-27T02:41:35.250Z,26.93
2018-07-27T02:42:35.248Z,26.93
2018-07-27T02:43:35.239Z,27.00
2018-07-27T02:44:35.236Z,26.92
2018-07-27T02:45:35.245Z,26.89
2018-07-27T02:46:35.230Z,26.89
2018-07-27T02:47:35.227Z,26.93
2018-07-27T02:48:35.221Z,26.83
2018-07-27T02:49:35.220Z,26.88
2018-07-27T02:50:35.217Z,26.86
2018-07-27T02:51:35.214Z,26.96
2018-07-27T02:52:35.212Z,26.88
2018-07-27T02:53:35.215Z,26.85
2018-07-27T02:54:35.201Z,26.93
2018-07-27T02:55:35.195Z,26.86
2018-07-27T02:56:35.194Z,26.86
2018-07-27T02:57:35.188Z,26.89
2018-07-27T02:58:35.184Z,26.88
2018-07-27T02:59:35.179Z,26.85
2018-07-27T03:00:35.178Z,26.89
2018-07-27T03:01:35.172Z,26.88
2018-07-27T03:02:35.184Z,26.93
2018-07-27T03:03:35.164Z,26.86
2018-07-27T03:04:35.171Z,26.92
2018-07-27T03:05:35.157Z,26.82
2018-07-27T03:06:35.154Z,26.83
2018-07-27T03:07:35.150Z,26.88
2018-07-27T03:08:35.167Z,26.86
2018-07-27T03:09:35.216Z,26.88
2018-07-27T03:10:35.140Z,26.85
2018-07-27T03:11:35.130Z,26.82
2018-07-27T03:12:35.131Z,26.83
2018-07-27T03:13:35.126Z,26.79
2018-07-27T03:14:35.124Z,26.91
2018-07-27T03:15:35.119Z,26.81
2018-07-27T03:16:35.126Z,26.89
2018-07-27T03:17:35.116Z,26.86
2018-07-27T03:18:35.108Z,26.82
2018-07-27T03:19:35.105Z,26.82
2018-07-27T03:20:35.106Z,26.81
2018-07-27T03:21:35.097Z,26.83
2018-07-27T03:22:35.093Z,26.81
2018-07-27T03:23:35.090Z,26.81
2018-07-27T03:24:35.081Z,26.81
2018-07-27T03:25:35.078Z,26.85
2018-07-27T03:26:35.076Z,26.78
2018-07-27T03:27:35.072Z,26.91
2018-07-27T03:28:35.069Z,26.79
2018-07-27T03:29:35.068Z,26.81
2018-07-27T03:30:35.063Z,26.86
2018-07-27T03:31:35.057Z,26.83
2018-07-27T03:32:35.058Z,26.83
2018-07-27T03:33:35.050Z,26.81
2018-07-27T03:34:35.047Z,26.92
2018-07-27T03:35:35.041Z,26.81
2018-07-27T03:36:35.040Z,26.83
2018-07-27T03:37:35.035Z,26.86
2018-07-27T03:38:35.038Z,26.82
2018-07-27T03:39:35.027Z,26.81
2018-07-27T03:40:35.027Z,26.88
2018-07-27T03:41:35.022Z,26.89
2018-07-27T03:42:35.015Z,26.83
2018-07-27T03:43:35.007Z,26.93
2018-07-27T03:44:35.010Z,26.88
2018-07-27T03:45:35.008Z,26.83
2018-07-27T03:46:34.998Z,26.82
2018-07-27T03:47:34.992Z,26.79
2018-07-27T03:48:34.996Z,26.74
2018-07-27T03:49:34.989Z,26.76
2018-07-27T03:50:34.988Z,26.78
2018-07-27T03:51:34.983Z,26.86
2018-07-27T03:52:34.971Z,26.82
2018-07-27T03:53:34.968Z,26.71
2018-07-27T03:54:34.957Z,26.79
2018-07-27T03:55:34.956Z,26.88
2018-07-27T03:56:34.949Z,26.85
2018-07-27T03:57:34.947Z,26.89
2018-07-27T03:58:34.943Z,26.91
2018-07-27T03:59:34.940Z,26.78
2018-07-27T04:00:34.924Z,26.89
2018-07-27T04:01:34.925Z,26.85
2018-07-27T04:02:34.926Z,26.96
2018-07-27T04:03:34.915Z,26.91
2018-07-27T04:04:34.911Z,26.91
2018-07-27T04:05:34.907Z,26.91
2018-07-27T04:06:34.902Z,26.97
2018-07-27T04:07:34.897Z,26.86
2018-07-27T04:08:34.920Z,26.86
2018-07-27T04:09:34.885Z,26.89
2018-07-27T04:10:34.884Z,26.89
2018-07-27T04:11:34.882Z,26.86
2018-07-27T04:12:34.872Z,26.93
2018-07-27T04:13:34.866Z,26.92
2018-07-27T04:14:34.860Z,26.88
2018-07-27T04:15:34.853Z,26.91
2018-07-27T04:16:34.850Z,26.97
2018-07-27T04:17:34.849Z,26.97
2018-07-27T04:18:34.839Z,26.88
2018-07-27T04:19:34.835Z,26.92
2018-07-27T04:20:34.829Z,26.85
2018-07-27T04:21:34.825Z,26.89
2018-07-27T04:22:34.824Z,27.00
2018-07-27T04:23:34.815Z,26.86
2018-07-27T04:24:34.814Z,27.00
2018-07-27T04:25:34.803Z,26.89
2018-07-27T04:26:34.799Z,26.93
2018-07-27T04:27:34.792Z,26.93
2018-07-27T04:28:34.789Z,26.88
2018-07-27T04:29:34.783Z,26.98
2018-07-27T04:30:34.777Z,26.93
2018-07-27T04:31:34.773Z,27.00
2018-07-27T04:32:34.766Z,26.98
2018-07-27T04:33:34.760Z,27.01
2018-07-27T04:34:34.755Z,27.01
2018-07-27T04:35:34.757Z,27.01
2018-07-27T04:36:34.759Z,27.00
2018-07-27T04:37:34.743Z,27.01
2018-07-27T04:38:34.737Z,26.97
2018-07-27T04:39:34.732Z,27.00
2018-07-27T04:40:34.728Z,27.00
2018-07-27T04:41:34.719Z,26.98
2018-07-27T04:42:34.714Z,27.00
2018-07-27T04:43:34.708Z,27.00
2018-07-27T04:44:34.706Z,26.96
2018-07-27T04:45:34.702Z,26.98
2018-07-27T04:46:34.693Z,27.00
2018-07-27T04:47:34.688Z,27.04
2018-07-27T04:48:34.681Z,26.96
2018-07-27T04:49:34.672Z,27.01
2018-07-27T04:50:34.673Z,26.96
2018-07-27T04:51:34.664Z,27.00
2018-07-27T04:52:34.660Z,26.97
2018-07-27T04:53:34.655Z,27.05
2018-07-27T04:54:34.661Z,27.00
2018-07-27T04:55:34.644Z,27.03
2018-07-27T04:56:34.724Z,27.00
2018-07-27T04:57:34.636Z,27.03
2018-07-27T04:58:34.632Z,27.03
2018-07-27T04:59:34.625Z,26.98
2018-07-27T05:00:34.622Z,27.05
2018-07-27T05:01:34.615Z,27.01
2018-07-27T05:02:34.609Z,27.07
2018-07-27T05:03:34.602Z,27.01
2018-07-27T05:04:34.644Z,27.05
2018-07-27T05:05:34.592Z,27.05
2018-07-27T05:06:34.594Z,27.07
2018-07-27T05:07:34.582Z,27.07
2018-07-27T05:08:34.576Z,27.07
2018-07-27T05:09:34.570Z,27.10
2018-07-27T05:10:34.563Z,27.08
2018-07-27T05:11:34.570Z,27.04
2018-07-27T05:12:34.560Z,27.03
2018-07-27T05:13:34.552Z,27.08
2018-07-27T05:14:34.547Z,27.08
2018-07-27T05:15:34.539Z,27.16
2018-07-27T05:16:34.535Z,27.10
2018-07-27T05:17:34.528Z,27.05
2018-07-27T05:18:34.525Z,27.10
2018-07-27T05:19:34.516Z,27.10
2018-07-27T05:20:34.514Z,27.15
2018-07-27T05:21:34.511Z,27.16
2018-07-27T05:22:34.503Z,27.15
2018-07-27T05:23:34.517Z,27.20
2018-07-27T05:24:34.502Z,27.20
2018-07-27T05:25:34.487Z,27.16
2018-07-27T05:26:34.481Z,27.20
2018-07-27T05:27:34.475Z,27.20
2018-07-27T05:28:34.469Z,27.26
2018-07-27T05:29:34.464Z,27.19
2018-07-27T05:30:34.465Z,27.26
2018-07-27T05:31:34.454Z,27.13
2018-07-27T05:32:34.449Z,27.07
2018-07-27T05:33:34.450Z,27.19
2018-07-27T05:34:34.440Z,27.10
2018-07-27T05:35:34.433Z,27.30
2018-07-27T05:36:34.428Z,27.23
2018-07-27T05:37:34.424Z,27.18
2018-07-27T05:38:34.417Z,27.19
2018-07-27T05:39:34.417Z,27.23
2018-07-27T05:40:34.407Z,27.20
2018-07-27T05:41:34.408Z,27.25
2018-07-27T05:42:34.400Z,27.30
2018-07-27T05:43:34.391Z,27.20
2018-07-27T05:44:34.387Z,27.25
2018-07-27T05:45:34.382Z,27.28
2018-07-27T05:46:34.377Z,27.30
2018-07-27T05:47:34.369Z,27.33
2018-07-27T05:48:34.381Z,27.35
2018-07-27T05:49:34.360Z,27.30
2018-07-27T05:50:34.356Z,27.35
2018-07-27T05:51:34.350Z,27.38
2018-07-27T05:52:34.344Z,27.38
2018-07-27T05:53:34.348Z,27.38
2018-07-27T05:54:34.333Z,27.37
2018-07-27T05:55:34.330Z,27.38
2018-07-27T05:56:34.324Z,27.41
2018-07-27T05:57:34.320Z,27.40
2018-07-27T05:58:34.324Z,27.47
2018-07-27T05:59:34.312Z,27.47
2018-07-27T06:00:34.304Z,27.50
2018-07-27T06:01:34.299Z,27.45
2018-07-27T06:02:34.325Z,27.52
2018-07-27T06:03:34.289Z,27.47
2018-07-27T06:04:34.282Z,27.53
2018-07-27T06:05:34.278Z,27.60
2018-07-27T06:06:34.273Z,27.60
2018-07-27T06:07:34.274Z,27.63
2018-07-27T06:08:34.262Z,27.60
2018-07-27T06:09:34.258Z,27.61
2018-07-27T06:10:34.259Z,27.63
2018-07-27T06:11:34.251Z,27.68
2018-07-27T06:12:34.246Z,27.68
2018-07-27T06:13:34.238Z,27.68
2018-07-27T06:14:34.266Z,27.68
2018-07-27T06:15:34.227Z,27.78
2018-07-27T06:16:34.229Z,27.68
2018-07-27T06:17:34.218Z,27.68
2018-07-27T06:18:34.222Z,27.82
2018-07-27T06:19:34.210Z,27.79
2018-07-27T06:20:34.205Z,27.81
2018-07-27T06:21:34.198Z,27.76
2018-07-27T06:22:34.191Z,27.85
2018-07-27T06:23:34.186Z,27.86
2018-07-27T06:24:34.190Z,27.81
2018-07-27T06:25:34.207Z,27.83
2018-07-27T06:26:34.219Z,27.85
2018-07-27T06:27:34.166Z,27.86
2018-07-27T06:28:34.163Z,27.94
2018-07-27T06:29:34.158Z,27.86
2018-07-27T06:30:34.160Z,27.95
2018-07-27T06:31:34.147Z,27.97
2018-07-27T06:32:34.149Z,27.95
2018-07-27T06:33:34.139Z,27.95
2018-07-27T06:34:34.133Z,27.97
2018-07-27T06:35:34.134Z,27.90
2018-07-27T06:36:34.128Z,27.97
2018-07-27T06:37:34.124Z,27.98
2018-07-27T06:38:34.115Z,27.91
2018-07-27T06:39:34.111Z,28.03
2018-07-27T06:40:34.105Z,28.00
2018-07-27T06:41:34.103Z,28.01
2018-07-27T06:42:34.093Z,27.98
2018-07-27T06:43:34.094Z,28.01
2018-07-27T06:44:34.112Z,28.01
2018-07-27T06:45:34.085Z,28.04
2018-07-27T06:46:34.075Z,27.97
2018-07-27T06:47:34.072Z,27.97
2018-07-27T06:48:34.064Z,28.00
2018-07-27T06:49:34.060Z,28.00
2018-07-27T06:50:34.059Z,28.04
2018-07-27T06:51:34.048Z,28.00
2018-07-27T06:52:34.061Z,28.01
2018-07-27T06:53:34.040Z,28.00
2018-07-27T06:54:34.043Z,28.03
2018-07-27T06:55:34.032Z,28.01
2018-07-27T06:56:34.029Z,28.00
2018-07-27T06:57:34.024Z,28.09
2018-07-27T06:58:34.017Z,28.00
2018-07-27T06:59:34.012Z,27.97
2018-07-27T07:00:34.004Z,28.04
2018-07-27T07:01:34.002Z,28.03
2018-07-27T07:02:33.998Z,28.00
2018-07-27T07:03:34.006Z,28.16
2018-07-27T07:04:33.992Z,28.16
2018-07-27T07:05:33.984Z,28.06
2018-07-27T07:06:33.980Z,28.18
2018-07-27T07:07:33.979Z,28.10
2018-07-27T07:08:33.968Z,28.16
2018-07-27T07:09:33.964Z,28.15
2018-07-27T07:10:33.959Z,28.15
2018-07-27T07:11:33.954Z,28.15
2018-07-27T07:12:33.950Z,28.25
2018-07-27T07:13:33.950Z,28.25
2018-07-27T07:14:33.993Z,28.28
2018-07-27T07:15:33.936Z,28.31
2018-07-27T07:16:33.936Z,28.31
2018-07-27T07:17:33.926Z,28.37
2018-07-27T07:18:33.921Z,28.34
2018-07-27T07:19:33.912Z,28.33
2018-07-27T07:20:33.945Z,28.38
2018-07-27T07:21:33.908Z,28.46
2018-07-27T07:22:33.908Z,28.52
2018-07-27T07:23:33.909Z,28.52
2018-07-27T07:24:33.901Z,28.57
2018-07-27T07:25:34.003Z,28.53
2018-07-27T07:26:33.884Z,28.47
2018-07-27T07:27:33.881Z,28.47
2018-07-27T07:28:33.876Z,28.57
2018-07-27T07:29:33.873Z,28.65
2018-07-27T07:30:33.867Z,28.57
2018-07-27T07:31:33.859Z,28.68
2018-07-27T07:32:33.867Z,28.55
2018-07-27T07:33:33.852Z,28.64
2018-07-27T07:34:33.849Z,28.60
2018-07-27T07:35:33.844Z,28.65
2018-07-27T07:36:33.836Z,28.60
2018-07-27T07:37:33.858Z,28.75
2018-07-27T07:38:33.842Z,28.72
2018-07-27T07:39:33.825Z,28.72
2018-07-27T07:40:33.824Z,28.67
2018-07-27T07:41:33.814Z,28.71
2018-07-27T07:42:33.814Z,28.71
2018-07-27T07:43:33.803Z,28.74
2018-07-27T07:44:33.816Z,28.77
2018-07-27T07:45:33.796Z,28.72
2018-07-27T07:46:33.792Z,28.80
2018-07-27T07:47:33.788Z,28.86
2018-07-27T07:48:33.784Z,28.84
2018-07-27T07:49:33.779Z,28.87
2018-07-27T07:50:33.773Z,28.92
2018-07-27T07:51:33.770Z,28.93
2018-07-27T07:52:33.765Z,29.02
2018-07-27T07:53:33.762Z,29.03
2018-07-27T07:54:33.770Z,28.94
2018-07-27T07:55:33.752Z,29.03
2018-07-27T07:56:33.748Z,29.07
2018-07-27T07:57:33.753Z,29.09
2018-07-27T07:58:33.786Z,29.10
2018-07-27T07:59:33.735Z,29.10
2018-07-27T08:00:33.732Z,29.15
2018-07-27T08:01:33.723Z,29.18
2018-07-27T08:02:33.724Z,29.18
2018-07-27T08:03:33.717Z,29.25
2018-07-27T08:04:33.717Z,29.13
2018-07-27T08:05:33.774Z,29.18
2018-07-27T08:06:33.704Z,29.18
2018-07-27T08:07:33.698Z,29.31
2018-07-27T08:08:33.696Z,29.28
2018-07-27T08:09:33.692Z,29.30
2018-07-27T08:10:33.688Z,29.24
2018-07-27T08:11:33.683Z,29.25
2018-07-27T08:12:33.681Z,29.31
2018-07-27T08:13:33.673Z,29.39
2018-07-27T08:14:33.670Z,29.28
2018-07-27T08:15:33.665Z,29.32
2018-07-27T08:16:33.670Z,29.43
2018-07-27T08:17:33.657Z,29.43
2018-07-27T08:18:33.654Z,29.46
2018-07-27T08:19:33.648Z,29.46
2018-07-27T08:20:33.644Z,29.50
2018-07-27T08:21:33.643Z,29.55
2018-07-27T08:22:33.636Z,29.61
2018-07-27T08:23:33.628Z,29.55
2018-07-27T08:24:33.626Z,29.62
2018-07-27T08:25:33.627Z,29.61
2018-07-27T08:26:33.638Z,29.64
2018-07-27T08:27:33.619Z,29.65
2018-07-27T08:28:33.611Z,29.65
2018-07-27T08:29:33.608Z,29.68
2018-07-27T08:30:33.603Z,29.73
2018-07-27T08:31:33.599Z,29.81
2018-07-27T08:32:33.609Z,29.83
2018-07-27T08:33:33.593Z,29.81
2018-07-27T08:34:33.587Z,29.81
2018-07-27T08:35:33.583Z,29.90
2018-07-27T08:36:33.579Z,29.90
2018-07-27T08:37:33.576Z,29.87
2018-07-27T08:38:33.571Z,29.86
2018-07-27T08:39:33.612Z,29.94
2018-07-27T08:40:33.565Z,29.99
2018-07-27T08:41:33.561Z,29.95
2018-07-27T08:42:33.555Z,30.03
2018-07-27T08:43:33.546Z,29.98
2018-07-27T08:44:33.551Z,30.01
2018-07-27T08:45:33.543Z,30.01
2018-07-27T08:46:33.538Z,30.02
2018-07-27T08:47:33.533Z,30.08
2018-07-27T08:48:33.531Z,30.11
2018-07-27T08:49:33.526Z,30.06
2018-07-27T08:50:33.531Z,30.13
2018-07-27T08:51:33.520Z,30.17
2018-07-27T08:52:33.517Z,30.08
2018-07-27T08:53:33.515Z,30.13
2018-07-27T08:54:33.507Z,30.27
2018-07-27T08:55:33.506Z,30.21
2018-07-27T08:56:33.501Z,30.20
2018-07-27T08:57:33.497Z,30.26
2018-07-27T08:58:33.493Z,30.29
2018-07-27T08:59:33.490Z,30.32
2018-07-27T09:00:33.484Z,30.32
2018-07-27T09:01:33.481Z,30.39
2018-07-27T09:02:33.480Z,30.39
2018-07-27T09:03:33.475Z,30.35
2018-07-27T09:04:33.469Z,30.36
2018-07-27T09:05:33.478Z,30.46
2018-07-27T09:06:33.464Z,30.43
2018-07-27T09:07:33.459Z,30.49
2018-07-27T09:08:33.458Z,30.43
2018-07-27T09:09:33.454Z,30.38
2018-07-27T09:10:33.451Z,30.51
2018-07-27T09:11:33.443Z,30.52
2018-07-27T09:12:33.439Z,30.51
2018-07-27T09:13:33.440Z,30.55
2018-07-27T09:14:33.438Z,30.54
2018-07-27T09:15:33.435Z,30.52
2018-07-27T09:16:33.426Z,30.54
2018-07-27T09:17:33.424Z,30.61
2018-07-27T09:18:33.425Z,30.59
2018-07-27T09:19:33.419Z,30.56
2018-07-27T09:20:33.415Z,30.63
2018-07-27T09:21:33.412Z,30.63
2018-07-27T09:22:33.406Z,30.61
2018-07-27T09:23:33.405Z,30.67
2018-07-27T09:24:33.510Z,30.62
2018-07-27T09:25:33.395Z,30.70
2018-07-27T09:26:33.392Z,30.65
2018-07-27T09:27:33.389Z,30.69
2018-07-27T09:28:33.394Z,30.69
2018-07-27T09:29:33.381Z,30.65
2018-07-27T09:30:33.380Z,30.76
2018-07-27T09:31:33.375Z,30.74
2018-07-27T09:32:33.373Z,30.80
2018-07-27T09:33:33.370Z,30.81
2018-07-27T09:34:33.365Z,30.80
2018-07-27T09:35:33.398Z,30.77
2018-07-27T09:36:33.354Z,30.78
2018-07-27T09:37:33.356Z,30.76
2018-07-27T09:38:33.350Z,30.81
2018-07-27T09:39:33.346Z,30.76
2018-07-27T09:40:33.365Z,30.88
2018-07-27T09:41:33.343Z,30.92
2018-07-27T09:42:33.345Z,30.92
2018-07-27T09:43:33.332Z,30.92
2018-07-27T09:44:33.329Z,31.00
2018-07-27T09:45:33.328Z,30.98
2018-07-27T09:46:33.376Z,30.96
2018-07-27T09:47:33.319Z,30.91
2018-07-27T09:48:33.317Z,30.89
2018-07-27T09:49:33.314Z,31.00
2018-07-27T09:50:33.311Z,31.02
2018-07-27T09:51:33.312Z,31.02
2018-07-27T09:52:33.303Z,31.05
2018-07-27T09:53:33.301Z,31.00
2018-07-27T09:54:33.298Z,31.04
2018-07-27T09:55:33.293Z,30.99
2018-07-27T09:56:33.291Z,31.04
2018-07-27T09:57:33.335Z,31.13
2018-07-27T09:58:33.291Z,31.15
2018-07-27T09:59:33.280Z,31.17
2018-07-27T10:00:33.280Z,31.11
2018-07-27T10:01:33.273Z,31.13
2018-07-27T10:02:33.274Z,31.14
2018-07-27T10:03:33.268Z,31.18
2018-07-27T10:04:33.261Z,31.20
2018-07-27T10:05:33.260Z,31.18
2018-07-27T10:06:33.260Z,31.14
2018-07-27T10:07:33.253Z,31.13
2018-07-27T10:08:33.252Z,31.13
2018-07-27T10:09:33.251Z,31.22
2018-07-27T10:10:33.246Z,31.22
2018-07-27T10:11:33.243Z,31.25
2018-07-27T10:12:33.242Z,31.26
2018-07-27T10:13:33.239Z,31.26
2018-07-27T10:14:33.234Z,31.28
2018-07-27T10:15:33.230Z,31.26
2018-07-27T10:16:33.228Z,31.32
2018-07-27T10:17:33.224Z,31.32
2018-07-27T10:18:33.253Z,31.30
2018-07-27T10:19:33.217Z,31.32
2018-07-27T10:20:33.215Z,31.25
2018-07-27T10:21:33.212Z,31.25
2018-07-27T10:22:33.209Z,31.28
2018-07-27T10:23:33.206Z,31.41
2018-07-27T10:24:33.204Z,31.33
2018-07-27T10:25:33.198Z,31.42
2018-07-27T10:26:33.198Z,31.33
2018-07-27T10:27:33.192Z,31.37
2018-07-27T10:28:33.190Z,31.42
2018-07-27T10:29:33.186Z,31.45
2018-07-27T10:30:33.185Z,31.33
2018-07-27T10:31:33.179Z,31.37
2018-07-27T10:32:33.175Z,31.42
2018-07-27T10:33:33.176Z,31.47
2018-07-27T10:34:33.171Z,31.44
2018-07-27T10:35:33.168Z,31.47
2018-07-27T10:36:33.165Z,31.48
2018-07-27T10:37:33.165Z,31.45
2018-07-27T10:38:33.186Z,31.47
2018-07-27T10:39:33.155Z,31.47
2018-07-27T10:40:33.154Z,31.59
2018-07-27T10:41:33.151Z,31.55
2018-07-27T10:42:33.148Z,31.47
2018-07-27T10:43:33.146Z,31.51
2018-07-27T10:44:33.141Z,31.54
2018-07-27T10:45:33.139Z,31.48
2018-07-27T10:46:33.136Z,31.57
2018-07-27T10:47:33.139Z,31.55
2018-07-27T10:48:33.131Z,31.51
2018-07-27T10:49:33.128Z,31.57
2018-07-27T10:50:33.127Z,31.55
2018-07-27T10:51:33.120Z,31.59
2018-07-27T10:52:33.128Z,31.55
2018-07-27T10:53:33.118Z,31.59
2018-07-27T10:54:33.119Z,31.63
2018-07-27T10:55:33.110Z,31.60
2018-07-27T10:56:33.119Z,31.64
2018-07-27T10:57:33.107Z,31.54
2018-07-27T10:58:33.109Z,31.63
2018-07-27T10:59:33.099Z,31.62
2018-07-27T11:00:33.101Z,31.69
2018-07-27T11:01:33.092Z,31.66
2018-07-27T11:02:33.095Z,31.60
2018-07-27T11:03:33.085Z,31.64
2018-07-27T11:04:33.081Z,31.66
2018-07-27T11:05:33.080Z,31.67
2018-07-27T11:06:33.078Z,31.64
2018-07-27T11:07:33.072Z,31.70
2018-07-27T11:08:33.074Z,31.62
2018-07-27T11:09:33.074Z,31.69
2018-07-27T11:10:33.066Z,31.72
2018-07-27T11:11:33.063Z,31.69
2018-07-27T11:12:33.059Z,31.62
2018-07-27T11:13:33.062Z,31.63
2018-07-27T11:14:33.061Z,31.59
2018-07-27T11:15:33.053Z,31.64
2018-07-27T11:16:33.050Z,31.69
2018-07-27T11:17:33.169Z,31.59
2018-07-27T11:18:33.043Z,31.69
2018-07-27T11:19:33.040Z,31.63
2018-07-27T11:20:33.037Z,31.64
2018-07-27T11:21:33.036Z,31.66
2018-07-27T11:22:33.034Z,31.67
2018-07-27T11:23:33.039Z,31.54
2018-07-27T11:24:33.031Z,31.55
2018-07-27T11:25:33.049Z,31.55
2018-07-27T11:26:33.032Z,31.57
2018-07-27T11:27:33.018Z,31.52
2018-07-27T11:28:33.017Z,31.62
2018-07-27T11:29:33.032Z,31.54
2018-07-27T11:30:33.012Z,31.52
2018-07-27T11:31:33.010Z,31.59
2018-07-27T11:32:33.025Z,31.60
2018-07-27T11:33:33.009Z,31.51
2018-07-27T11:34:33.005Z,31.52
2018-07-27T11:35:32.998Z,31.59
2018-07-27T11:36:32.996Z,31.55
2018-07-27T11:37:32.989Z,31.51
2018-07-27T11:38:32.989Z,31.50
2018-07-27T11:39:32.990Z,31.54
2018-07-27T11:40:32.985Z,31.52
2018-07-27T11:41:32.983Z,31.57
2018-07-27T11:42:32.978Z,31.50
2018-07-27T11:43:32.974Z,31.54
2018-07-27T11:44:32.977Z,31.54
2018-07-27T11:45:32.968Z,31.50
2018-07-27T11:46:32.965Z,31.52
2018-07-27T11:47:32.961Z,31.60
2018-07-27T11:48:32.961Z,31.54
2018-07-27T11:49:33.004Z,31.48
2018-07-27T11:50:32.955Z,31.52
2018-07-27T11:51:32.951Z,31.59
2018-07-27T11:52:32.948Z,31.52
2018-07-27T11:53:32.945Z,31.57
2018-07-27T11:54:32.946Z,31.62
2018-07-27T11:55:32.946Z,31.62
2018-07-27T11:56:32.941Z,31.60
2018-07-27T11:57:32.944Z,31.62
2018-07-27T11:58:32.931Z,31.57
2018-07-27T11:59:33.638Z,31.57
2018-07-27T12:00:32.923Z,31.57
2018-07-27T12:01:32.955Z,31.62
2018-07-27T12:02:32.920Z,31.55
2018-07-27T12:03:32.914Z,31.63
2018-07-27T12:04:32.912Z,31.62
2018-07-27T12:05:32.906Z,31.63
2018-07-27T12:06:32.909Z,31.57
2018-07-27T12:07:32.902Z,31.57
2018-07-27T12:08:32.900Z,31.52
2018-07-27T12:09:32.905Z,31.57
2018-07-27T12:10:32.898Z,31.55
2018-07-27T12:11:32.899Z,31.51
2018-07-27T12:12:32.888Z,31.52
2018-07-27T12:13:32.886Z,31.52
2018-07-27T12:14:33.106Z,31.57
2018-07-27T12:15:32.883Z,31.51
2018-07-27T12:16:32.878Z,31.50
2018-07-27T12:17:32.875Z,31.50
2018-07-27T12:18:32.875Z,31.55
2018-07-27T12:19:32.868Z,31.48
2018-07-27T12:20:32.898Z,31.45
2018-07-27T12:21:33.066Z,31.50
2018-07-27T12:22:32.866Z,31.50
2018-07-27T12:23:32.859Z,31.45
2018-07-27T12:24:32.853Z,31.48
2018-07-27T12:25:32.853Z,31.51
2018-07-27T12:26:32.858Z,31.48
2018-07-27T12:27:32.850Z,31.50
2018-07-27T12:28:32.845Z,31.48
2018-07-27T12:29:32.839Z,31.45
2018-07-27T12:30:32.840Z,31.47
2018-07-27T12:31:32.835Z,31.44
2018-07-27T12:32:32.857Z,31.45
2018-07-27T12:33:32.822Z,31.44
2018-07-27T12:34:32.827Z,31.41
2018-07-27T12:35:32.822Z,31.44
2018-07-27T12:36:32.818Z,31.45
2018-07-27T12:37:32.814Z,31.45
2018-07-27T12:38:32.812Z,31.36
2018-07-27T12:39:32.809Z,31.41
2018-07-27T12:40:32.808Z,31.44
2018-07-27T12:41:32.805Z,31.42
2018-07-27T12:42:32.847Z,31.33
2018-07-27T12:43:32.802Z,31.37
2018-07-27T12:44:32.797Z,31.33
2018-07-27T12:45:32.798Z,31.37
2018-07-27T12:46:32.790Z,31.36
2018-07-27T12:47:32.785Z,31.37
2018-07-27T12:48:32.788Z,31.33
2018-07-27T12:49:32.781Z,31.39
2018-07-27T12:50:32.777Z,31.30
2018-07-27T12:51:32.774Z,31.28
2018-07-27T12:52:32.772Z,31.35